Time;durP1;ratioP1;P1;durP2;ratioP2;P2;SDS_P1;SDS_P2;PMS_P1;PMS_P2;Temp;Humidity;BMP_temperature;BMP_pressure;BME280_temperature;BME280_humidity;BME280_pressure;Samples;Min_cycle;Max_cycle;Signal;HPM_P1;HPM_P2
2021/07/16 00:00:07;;;;;;;9.03;4.43;;;17.60;99.90;;;;;;5028322;28;20362;-51
2021/07/16 00:02:34;;;;;;;7.80;4.37;;;17.60;99.90;;;;;;5023937;28;20284;-51
2021/07/16 00:05:02;;;;;;;10.17;4.20;;;17.50;99.90;;;;;;5027808;28;20207;-51
2021/07/16 00:07:29;;;;;;;9.10;4.53;;;17.50;99.90;;;;;;5026968;28;20269;-52
2021/07/16 00:09:56;;;;;;;9.30;4.60;;;17.40;99.90;;;;;;5030866;28;20290;-51
2021/07/16 00:12:23;;;;;;;5.50;4.13;;;17.50;99.90;;;;;;5021575;28;20742;-51
2021/07/16 00:14:50;;;;;;;9.20;4.90;;;17.40;99.90;;;;;;5027166;28;20471;-51
2021/07/16 00:17:17;;;;;;;7.83;4.17;;;17.30;99.90;;;;;;5028314;28;20827;-51
2021/07/16 00:19:44;;;;;;;11.23;4.40;;;17.40;99.90;;;;;;5023385;28;21410;-51
2021/07/16 00:22:11;;;;;;;7.93;4.57;;;17.40;99.90;;;;;;5024953;28;20211;-51
2021/07/16 00:24:38;;;;;;;9.27;4.33;;;17.40;99.90;;;;;;5022521;28;20850;-51
2021/07/16 00:27:05;;;;;;;8.27;4.37;;;17.50;99.90;;;;;;5027397;28;20290;-51
2021/07/16 00:29:32;;;;;;;10.70;4.13;;;17.50;99.90;;;;;;5027318;28;20609;-52
2021/07/16 00:31:59;;;;;;;9.53;4.80;;;17.70;99.90;;;;;;5029206;28;20221;-51
2021/07/16 00:34:27;;;;;;;5.60;3.97;;;17.50;99.90;;;;;;5027447;28;20245;-51
2021/07/16 00:36:55;;;;;;;6.63;4.00;;;17.60;99.90;;;;;;5027045;28;20236;-51
2021/07/16 00:39:22;;;;;;;8.07;4.30;;;17.70;99.90;;;;;;5025612;28;20348;-51
2021/07/16 00:41:49;;;;;;;10.50;4.90;;;17.70;99.90;;;;;;5027562;28;20285;-52
2021/07/16 00:44:19;;;;;;;8.63;4.67;;;17.60;99.90;;;;;;5023069;28;20357;-51
2021/07/16 00:46:46;;;;;;;9.73;4.80;;;17.60;99.90;;;;;;5024822;28;20206;-51
2021/07/16 00:49:14;;;;;;;10.00;5.27;;;17.50;99.90;;;;;;5024616;28;20380;-52
2021/07/16 00:51:40;;;;;;;7.97;4.63;;;17.70;99.90;;;;;;5023448;28;20300;-52
2021/07/16 00:54:08;;;;;;;6.83;4.27;;;17.60;99.90;;;;;;5024006;28;20652;-51
2021/07/16 00:56:35;;;;;;;9.13;4.50;;;17.60;99.90;;;;;;5027370;28;20696;-52
2021/07/16 00:59:03;;;;;;;11.20;4.93;;;17.50;99.90;;;;;;5024086;28;20674;-51
2021/07/16 01:01:30;;;;;;;7.53;4.67;;;17.50;99.90;;;;;;5023256;28;20680;-51
2021/07/16 01:03:58;;;;;;;7.60;4.50;;;17.50;99.90;;;;;;5026522;28;20209;-51
2021/07/16 01:06:27;;;;;;;7.20;4.77;;;17.60;99.90;;;;;;5031443;28;20203;-51
2021/07/16 01:08:54;;;;;;;13.83;4.60;;;17.50;99.90;;;;;;5023681;28;20207;-51
2021/07/16 01:11:21;;;;;;;8.07;4.47;;;17.50;99.90;;;;;;5032117;28;20528;-51
2021/07/16 01:13:48;;;;;;;8.90;4.33;;;17.50;99.90;;;;;;5027792;28;20360;-51
2021/07/16 01:16:16;;;;;;;5.63;4.90;;;17.50;99.90;;;;;;5030439;28;20608;-51
2021/07/16 01:18:43;;;;;;;9.20;4.80;;;17.50;99.90;;;;;;5030083;28;20679;-51
2021/07/16 01:21:12;;;;;;;8.00;5.00;;;17.50;99.90;;;;;;5029090;28;20287;-51
2021/07/16 01:23:41;;;;;;;9.53;5.13;;;17.50;99.90;;;;;;5026685;28;20298;-51
2021/07/16 01:26:08;;;;;;;7.17;4.70;;;17.50;99.90;;;;;;5027433;28;20302;-51
2021/07/16 01:28:37;;;;;;;8.13;5.50;;;17.60;99.90;;;;;;5027339;28;20317;-51
2021/07/16 01:31:06;;;;;;;8.37;4.70;;;17.50;99.90;;;;;;5031324;28;20846;-51
2021/07/16 01:33:33;;;;;;;5.37;4.40;;;17.40;99.90;;;;;;5035831;28;20233;-51
2021/07/16 01:36:01;;;;;;;10.03;5.23;;;17.50;99.90;;;;;;5037229;28;20606;-51
2021/07/16 01:38:28;;;;;;;7.80;4.90;;;17.50;99.90;;;;;;5029772;28;20293;-51
2021/07/16 01:40:55;;;;;;;10.07;4.67;;;17.60;99.90;;;;;;5032419;28;20241;-51
2021/07/16 01:43:22;;;;;;;8.97;4.57;;;17.60;99.90;;;;;;5034642;28;20227;-51
2021/07/16 01:45:49;;;;;;;8.63;4.70;;;17.40;99.90;;;;;;5032500;28;20234;-51
2021/07/16 01:48:16;;;;;;;6.73;4.97;;;17.60;99.90;;;;;;5030417;28;20321;-52
2021/07/16 01:50:46;;;;;;;12.20;5.60;;;17.60;99.90;;;;;;5032858;28;20411;-51
2021/07/16 01:53:15;;;;;;;11.53;5.17;;;17.50;99.90;;;;;;5030546;28;20224;-51
2021/07/16 01:55:42;;;;;;;12.33;5.60;;;17.50;99.90;;;;;;5035001;28;20624;-51
2021/07/16 01:58:11;;;;;;;7.90;5.20;;;17.50;99.90;;;;;;5037229;28;20220;-52
2021/07/16 02:00:42;;;;;;;9.83;5.10;;;17.50;99.90;;;;;;5035709;28;20204;-51
2021/07/16 02:03:11;;;;;;;12.23;5.47;;;17.50;99.90;;;;;;5035753;28;20681;-51
2021/07/16 02:05:40;;;;;;;17.80;5.70;;;17.40;99.90;;;;;;5038155;28;20516;-51
2021/07/16 02:08:19;;;;;;;9.30;5.70;;;17.20;99.90;;;;;;5033625;28;20934;-51
2021/07/16 02:10:49;;;;;;;10.43;5.27;;;17.30;99.90;;;;;;5031122;28;20659;-51
2021/07/16 02:13:16;;;;;;;11.87;5.47;;;17.20;99.90;;;;;;5036811;28;20857;-51
2021/07/16 02:15:45;;;;;;;8.43;5.00;;;17.20;99.90;;;;;;5030730;28;20350;-51
2021/07/16 02:18:14;;;;;;;14.67;5.77;;;17.30;99.90;;;;;;5034522;28;20538;-51
2021/07/16 02:20:42;;;;;;;11.43;5.27;;;17.30;99.90;;;;;;5035786;28;20703;-51
2021/07/16 02:23:14;;;;;;;16.83;5.70;;;17.00;99.90;;;;;;5030407;28;20314;-52
2021/07/16 02:25:41;;;;;;;11.00;5.20;;;17.00;99.90;;;;;;5032628;28;20290;-52
2021/07/16 02:28:14;;;;;;;9.33;4.97;;;17.00;99.90;;;;;;5034029;28;20298;-52
2021/07/16 02:30:41;;;;;;;8.30;5.47;;;17.00;99.90;;;;;;5035305;28;20223;-52
2021/07/16 02:33:09;;;;;;;8.90;5.00;;;17.10;99.90;;;;;;5033100;28;20296;-52
2021/07/16 02:35:36;;;;;;;13.43;5.80;;;17.10;99.90;;;;;;5032528;28;20308;-52
2021/07/16 02:38:05;;;;;;;10.93;5.33;;;17.00;99.90;;;;;;5031847;28;20237;-52
2021/07/16 02:40:34;;;;;;;11.67;5.43;;;17.00;99.90;;;;;;5032680;28;20249;-51
2021/07/16 02:43:01;;;;;;;12.40;5.47;;;17.10;99.90;;;;;;5033312;28;20321;-51
2021/07/16 02:45:28;;;;;;;14.60;5.60;;;17.00;99.90;;;;;;5032397;28;20720;-51
2021/07/16 02:47:55;;;;;;;12.10;5.17;;;17.00;99.90;;;;;;5034642;28;20218;-52
2021/07/16 02:50:25;;;;;;;10.70;5.73;;;17.00;99.90;;;;;;5032552;28;20547;-52
2021/07/16 02:52:52;;;;;;;10.83;5.23;;;17.00;99.90;;;;;;5033536;28;20220;-52
2021/07/16 02:55:20;;;;;;;10.57;4.77;;;16.90;99.90;;;;;;5035965;28;20302;-52
2021/07/16 02:57:47;;;;;;;11.77;5.10;;;16.90;99.90;;;;;;5033360;28;20962;-52
2021/07/16 03:00:18;;;;;;;11.83;5.53;;;16.90;99.90;;;;;;5033963;28;20667;-51
2021/07/16 03:02:47;;;;;;;12.07;4.87;;;16.90;99.90;;;;;;5030903;28;20698;-52
2021/07/16 03:05:19;;;;;;;6.70;4.57;;;16.80;99.90;;;;;;5034457;28;20193;-52
2021/07/16 03:07:46;;;;;;;10.77;5.03;;;16.80;99.90;;;;;;5034128;28;20614;-52
2021/07/16 03:10:16;;;;;;;10.33;5.57;;;17.00;99.90;;;;;;5029891;28;20301;-52
2021/07/16 03:12:43;;;;;;;10.20;5.00;;;16.80;99.90;;;;;;5034847;28;20799;-52
2021/07/16 03:15:19;;;;;;;9.67;4.70;;;16.80;99.90;;;;;;5034384;28;20205;-51
2021/07/16 03:17:47;;;;;;;9.80;5.00;;;16.70;99.90;;;;;;5035930;28;20722;-52
2021/07/16 03:20:26;;;;;;;11.10;4.87;;;16.80;99.90;;;;;;5036347;28;20297;-52
2021/07/16 03:22:54;;;;;;;14.40;5.53;;;16.90;99.90;;;;;;5031309;28;20233;-52
2021/07/16 03:25:22;;;;;;;11.97;4.60;;;16.80;99.90;;;;;;5033351;28;20293;-51
2021/07/16 03:27:50;;;;;;;9.73;4.53;;;16.70;99.90;;;;;;5028927;28;20769;-51
2021/07/16 03:30:26;;;;;;;15.60;4.90;;;16.80;99.90;;;;;;5029421;28;20256;-52
2021/07/16 03:32:56;;;;;;;8.40;4.63;;;16.70;99.90;;;;;;5033073;28;20664;-51
2021/07/16 03:35:24;;;;;;;7.30;4.43;;;16.80;99.90;;;;;;5033894;28;20203;-52
2021/07/16 03:37:52;;;;;;;10.43;4.43;;;16.80;99.90;;;;;;5030840;28;20225;-51
2021/07/16 03:40:23;;;;;;;12.13;4.70;;;16.80;99.90;;;;;;5035992;28;20260;-52
2021/07/16 03:42:50;;;;;;;7.57;4.50;;;16.80;99.90;;;;;;5032998;28;20233;-51
2021/07/16 03:45:18;;;;;;;11.30;5.20;;;16.90;99.90;;;;;;5035436;28;20193;-52
2021/07/16 03:47:47;;;;;;;12.17;4.50;;;16.90;99.90;;;;;;5035777;28;20299;-52
2021/07/16 03:50:18;;;;;;;11.57;4.90;;;16.80;99.90;;;;;;5030574;28;20309;-52
2021/07/16 03:52:45;;;;;;;12.87;4.50;;;16.80;99.90;;;;;;5049849;28;20275;-52
2021/07/16 03:55:12;;;;;;;10.17;5.27;;;16.80;99.90;;;;;;5033952;28;20256;-52
2021/07/16 03:57:44;;;;;;;7.70;4.33;;;16.80;99.90;;;;;;5031735;28;20304;-52
2021/07/16 04:00:13;;;;;;;11.20;5.10;;;16.80;99.90;;;;;;5031733;28;20237;-51
2021/07/16 04:02:41;;;;;;;10.50;4.53;;;16.80;99.90;;;;;;5031960;28;20243;-52
2021/07/16 04:05:09;;;;;;;11.30;5.20;;;16.80;99.90;;;;;;5032002;28;20247;-52
2021/07/16 04:07:44;;;;;;;9.77;4.40;;;16.90;99.90;;;;;;5029801;28;20228;-51
2021/07/16 04:10:16;;;;;;;11.67;4.77;;;16.90;99.90;;;;;;5034371;28;20473;-52
2021/07/16 04:12:50;;;;;;;11.73;4.87;;;16.80;99.90;;;;;;5029729;28;20294;-51
2021/07/16 04:15:17;;;;;;;11.27;4.67;;;16.80;99.90;;;;;;5031828;28;20291;-52
2021/07/16 04:17:44;;;;;;;13.07;4.87;;;16.80;99.90;;;;;;5031806;28;20247;-52
2021/07/16 04:20:12;;;;;;;11.03;5.37;;;16.70;99.90;;;;;;5035239;28;20225;-51
2021/07/16 04:22:39;;;;;;;8.33;4.60;;;16.70;99.90;;;;;;5029351;28;20234;-52
2021/07/16 04:25:08;;;;;;;16.17;4.67;;;16.70;99.90;;;;;;5030724;28;20689;-52
2021/07/16 04:27:34;;;;;;;9.63;4.70;;;16.70;99.90;;;;;;5029975;28;20251;-52
2021/07/16 04:30:01;;;;;;;11.77;4.50;;;16.90;99.90;;;;;;5031182;28;20337;-52
2021/07/16 04:32:28;;;;;;;12.70;4.63;;;16.80;99.90;;;;;;5030944;28;20311;-52
2021/07/16 04:34:55;;;;;;;8.53;4.10;;;16.80;99.90;;;;;;5026832;28;20287;-51
2021/07/16 04:37:22;;;;;;;9.90;4.30;;;16.90;99.90;;;;;;5026967;28;20537;-52
2021/07/16 04:39:49;;;;;;;9.33;4.27;;;16.80;99.90;;;;;;5027706;28;20645;-51
2021/07/16 04:42:16;;;;;;;6.97;3.93;;;16.90;99.90;;;;;;5032053;28;21130;-52
2021/07/16 04:44:43;;;;;;;12.37;5.00;;;16.90;99.90;;;;;;5030262;28;20339;-52
2021/07/16 04:47:09;;;;;;;18.37;4.73;;;16.90;99.90;;;;;;5025622;28;20623;-51
2021/07/16 04:49:37;;;;;;;8.63;4.10;;;16.90;99.90;;;;;;5030381;28;20345;-50
2021/07/16 04:52:04;;;;;;;9.63;4.10;;;16.90;99.90;;;;;;5032907;28;20636;-52
2021/07/16 04:54:31;;;;;;;7.83;4.23;;;16.90;99.90;;;;;;5035359;28;20299;-53
2021/07/16 04:56:57;;;;;;;7.50;3.80;;;16.80;99.90;;;;;;5031991;28;20233;-52
2021/07/16 04:59:24;;;;;;;13.43;4.67;;;16.80;99.90;;;;;;5031677;28;20300;-53
2021/07/16 05:01:54;;;;;;;8.87;4.07;;;16.90;99.90;;;;;;5031323;28;20226;-52
2021/07/16 05:04:21;;;;;;;9.40;4.20;;;16.80;99.90;;;;;;5027113;28;20209;-53
2021/07/16 05:06:48;;;;;;;10.43;4.20;;;16.80;99.90;;;;;;5028424;28;20210;-51
2021/07/16 05:09:16;;;;;;;12.20;4.47;;;16.90;99.90;;;;;;5031278;28;20208;-50
2021/07/16 05:11:44;;;;;;;13.67;4.03;;;16.80;99.90;;;;;;5033748;28;20255;-53
2021/07/16 05:14:11;;;;;;;10.53;4.00;;;16.60;99.90;;;;;;5036485;28;20729;-53
2021/07/16 05:16:42;;;;;;;10.87;4.30;;;16.80;99.90;;;;;;5028644;28;20205;-53
2021/07/16 05:19:09;;;;;;;10.13;3.57;;;16.90;99.90;;;;;;5030524;28;20258;-52
2021/07/16 05:21:35;;;;;;;8.20;3.37;;;16.90;99.90;;;;;;5030575;28;20210;-53
2021/07/16 05:24:03;;;;;;;12.03;4.10;;;17.00;99.90;;;;;;5026681;28;20206;-53
2021/07/16 05:26:30;;;;;;;10.97;3.47;;;16.90;99.90;;;;;;5032039;28;20610;-50
2021/07/16 05:28:56;;;;;;;13.47;3.83;;;16.90;99.90;;;;;;5027249;28;20310;-51
2021/07/16 05:31:23;;;;;;;7.43;3.00;;;16.80;99.90;;;;;;5033330;28;20258;-50
2021/07/16 05:33:50;;;;;;;9.43;3.30;;;16.90;99.90;;;;;;5027037;28;20205;-53
2021/07/16 05:36:17;;;;;;;12.77;4.30;;;16.90;99.90;;;;;;5032557;28;20202;-52
2021/07/16 05:38:44;;;;;;;13.00;3.90;;;16.80;99.90;;;;;;5026984;28;20230;-52
2021/07/16 05:41:11;;;;;;;8.70;3.17;;;16.80;99.90;;;;;;5030535;28;20265;-52
2021/07/16 05:43:38;;;;;;;9.77;3.70;;;16.90;99.90;;;;;;5026115;28;20692;-51
2021/07/16 05:46:04;;;;;;;8.40;3.33;;;16.80;99.90;;;;;;5027770;28;20232;-54
2021/07/16 05:48:32;;;;;;;14.67;3.80;;;16.90;99.90;;;;;;5029091;28;20289;-51
2021/07/16 05:51:01;;;;;;;6.17;3.23;;;16.90;99.90;;;;;;5031510;28;22086;-51
2021/07/16 05:53:29;;;;;;;10.20;3.73;;;17.00;99.90;;;;;;5029388;28;20281;-51
2021/07/16 05:55:56;;;;;;;10.47;3.60;;;16.70;99.90;;;;;;5033696;28;20655;-51
2021/07/16 05:58:22;;;;;;;10.43;4.53;;;16.80;99.90;;;;;;5037174;28;20574;-51
2021/07/16 06:00:49;;;;;;;7.33;2.93;;;16.80;99.90;;;;;;5031653;28;20272;-52
2021/07/16 06:03:16;;;;;;;12.17;3.90;;;16.90;99.90;;;;;;5033890;28;20265;-52
2021/07/16 06:05:43;;;;;;;11.47;3.17;;;17.10;99.90;;;;;;5032651;28;20649;-52
2021/07/16 06:08:10;;;;;;;13.77;3.57;;;16.90;99.90;;;;;;5029248;28;20625;-51
2021/07/16 06:10:37;;;;;;;11.50;3.10;;;16.80;99.90;;;;;;5035195;28;20225;-52
2021/07/16 06:13:04;;;;;;;6.10;3.40;;;16.90;99.90;;;;;;5030924;28;21395;-52
2021/07/16 06:15:31;;;;;;;10.97;3.63;;;17.00;99.90;;;;;;5029878;28;20645;-51
2021/07/16 06:18:02;;;;;;;13.73;3.47;;;17.00;99.90;;;;;;5030089;28;20297;-51
2021/07/16 06:20:29;;;;;;;7.07;3.03;;;17.00;99.90;;;;;;5024411;28;20672;-53
2021/07/16 06:22:56;;;;;;;13.23;4.50;;;16.90;99.90;;;;;;5030204;28;20225;-52
2021/07/16 06:25:23;;;;;;;11.60;3.23;;;16.80;99.90;;;;;;5034347;28;20206;-53
2021/07/16 06:27:50;;;;;;;12.07;3.30;;;16.90;99.90;;;;;;5034459;28;20263;-52
2021/07/16 06:30:17;;;;;;;12.50;3.23;;;17.00;99.90;;;;;;5035025;28;20309;-52
2021/07/16 06:32:45;;;;;;;15.03;3.00;;;17.00;99.90;;;;;;5028526;28;20781;-53
2021/07/16 06:35:13;;;;;;;9.10;3.37;;;17.10;99.90;;;;;;5041911;28;20204;-53
2021/07/16 06:37:40;;;;;;;9.33;3.33;;;17.10;99.90;;;;;;5039706;28;20208;-53
2021/07/16 06:40:08;;;;;;;7.37;2.93;;;17.10;99.90;;;;;;5040005;28;20345;-52
2021/07/16 06:42:35;;;;;;;8.13;3.10;;;17.20;99.90;;;;;;5032077;28;20568;-53
2021/07/16 06:45:03;;;;;;;8.87;3.50;;;17.20;99.90;;;;;;5028835;28;20627;-53
2021/07/16 06:47:30;;;;;;;13.10;3.60;;;17.30;99.90;;;;;;5038628;28;20314;-53
2021/07/16 06:49:56;;;;;;;15.03;3.50;;;17.30;99.90;;;;;;5031269;28;20577;-52
2021/07/16 06:52:28;;;;;;;10.27;3.20;;;17.40;99.90;;;;;;5042744;28;20359;-52
2021/07/16 06:54:55;;;;;;;10.90;3.13;;;17.40;99.90;;;;;;5035541;28;20221;-52
2021/07/16 06:57:22;;;;;;;11.73;3.53;;;17.30;99.90;;;;;;5036421;28;20221;-52
2021/07/16 06:59:49;;;;;;;11.77;3.07;;;17.20;99.90;;;;;;5039020;28;20708;-52
2021/07/16 07:02:16;;;;;;;9.47;2.83;;;17.20;99.90;;;;;;5039424;28;20346;-52
2021/07/16 07:04:43;;;;;;;7.27;3.13;;;17.30;99.90;;;;;;5039437;28;20298;-50
2021/07/16 07:07:10;;;;;;;10.13;3.03;;;17.30;99.90;;;;;;5036453;28;20267;-50
2021/07/16 07:09:37;;;;;;;8.07;3.10;;;17.30;99.90;;;;;;5037246;28;20234;-51
2021/07/16 07:12:04;;;;;;;10.07;3.27;;;17.30;99.90;;;;;;5034952;28;20197;-53
2021/07/16 07:14:31;;;;;;;10.30;3.23;;;17.30;99.90;;;;;;5037029;28;20332;-51
2021/07/16 07:16:57;;;;;;;14.63;3.57;;;17.40;99.90;;;;;;5027458;28;20291;-51
2021/07/16 07:19:25;;;;;;;7.33;3.63;;;17.10;99.90;;;;;;5034993;28;20201;-51
2021/07/16 07:21:52;;;;;;;12.43;3.70;;;17.20;99.90;;;;;;5037943;28;20228;-51
2021/07/16 07:24:18;;;;;;;8.00;2.87;;;17.10;99.90;;;;;;5034143;28;20212;-51
2021/07/16 07:26:45;;;;;;;9.70;2.57;;;17.20;99.90;;;;;;5037876;28;20645;-51
2021/07/16 07:29:12;;;;;;;8.87;3.23;;;17.20;99.90;;;;;;5033048;28;20714;-54
2021/07/16 07:31:39;;;;;;;11.05;3.70;;;17.20;99.90;;;;;;5027632;28;20480;-52
2021/07/16 07:34:06;;;;;;;10.50;3.67;;;17.20;99.90;;;;;;5031885;28;20458;-52
2021/07/16 07:36:32;;;;;;;7.30;3.37;;;17.30;99.90;;;;;;5031159;28;20289;-52
2021/07/16 07:38:59;;;;;;;10.03;3.17;;;17.30;99.90;;;;;;5029418;28;20226;-52
2021/07/16 07:41:27;;;;;;;11.70;3.23;;;17.30;99.90;;;;;;5035402;28;20770;-53
2021/07/16 07:43:56;;;;;;;12.23;3.00;;;17.40;99.90;;;;;;5028721;28;20626;-52
2021/07/16 07:46:24;;;;;;;13.90;2.87;;;17.40;99.90;;;;;;5025118;28;20581;-53
2021/07/16 07:48:51;;;;;;;9.57;3.10;;;17.30;99.90;;;;;;5024572;28;20198;-51
2021/07/16 07:51:17;;;;;;;11.60;3.47;;;17.40;99.90;;;;;;5030070;28;20260;-50
2021/07/16 07:53:44;;;;;;;7.70;2.50;;;17.40;99.90;;;;;;5031302;28;20314;-53
2021/07/16 07:56:28;;;;;;;12.23;3.17;;;17.40;99.90;;;;;;5030231;28;20200;-52
2021/07/16 07:58:55;;;;;;;14.60;3.17;;;17.30;99.90;;;;;;5030545;28;20284;-51
2021/07/16 08:01:24;;;;;;;9.73;2.63;;;17.30;99.90;;;;;;5032712;28;20706;-52
2021/07/16 08:03:51;;;;;;;10.63;2.80;;;17.30;99.90;;;;;;5031477;28;20212;-52
2021/07/16 08:06:18;;;;;;;13.90;4.07;;;17.30;99.90;;;;;;5030078;28;20777;-52
2021/07/16 08:08:45;;;;;;;10.27;3.13;;;17.30;99.90;;;;;;5029124;28;20301;-51
2021/07/16 08:11:12;;;;;;;19.67;4.00;;;17.20;99.90;;;;;;5027647;28;20225;-52
2021/07/16 08:13:39;;;;;;;10.13;3.30;;;17.30;99.90;;;;;;5034688;28;20639;-51
2021/07/16 08:16:06;;;;;;;13.60;3.27;;;17.40;99.90;;;;;;5032080;28;20197;-51
2021/07/16 08:18:34;;;;;;;13.03;3.50;;;17.50;99.90;;;;;;5029704;28;20683;-51
2021/07/16 08:21:01;;;;;;;10.90;3.20;;;17.40;99.90;;;;;;5028940;28;20200;-51
2021/07/16 08:23:27;;;;;;;9.37;3.03;;;17.30;99.90;;;;;;5026366;28;20219;-51
2021/07/16 08:25:54;;;;;;;4.80;2.33;;;17.20;99.90;;;;;;5031792;28;20210;-52
2021/07/16 08:28:21;;;;;;;10.50;3.40;;;17.30;99.90;;;;;;5034262;28;20232;-51
2021/07/16 08:30:48;;;;;;;17.07;3.63;;;17.30;99.90;;;;;;5027895;28;20345;-51
2021/07/16 08:33:15;;;;;;;9.23;3.30;;;17.30;99.90;;;;;;5031081;28;20197;-51
2021/07/16 08:35:42;;;;;;;8.60;2.43;;;17.40;99.90;;;;;;5036489;28;20201;-52
2021/07/16 08:38:09;;;;;;;9.77;3.40;;;17.40;99.90;;;;;;5031230;28;20203;-52
2021/07/16 08:40:36;;;;;;;8.13;3.30;;;17.40;99.90;;;;;;5030183;28;20367;-51
2021/07/16 08:43:05;;;;;;;11.17;3.63;;;17.50;99.90;;;;;;5029945;28;20566;-52
2021/07/16 08:45:32;;;;;;;7.40;2.93;;;17.30;99.90;;;;;;5030296;28;20749;-51
2021/07/16 08:48:01;;;;;;;13.40;3.00;;;17.40;99.90;;;;;;5030325;28;20222;-51
2021/07/16 08:50:29;;;;;;;13.60;3.80;;;17.40;99.90;;;;;;5027365;28;20583;-51
2021/07/16 08:53:01;;;;;;;10.03;3.23;;;17.50;99.90;;;;;;5030685;28;20209;-51
2021/07/16 08:55:33;;;;;;;8.90;3.13;;;17.50;99.90;;;;;;5028877;28;20381;-51
2021/07/16 08:58:00;;;;;;;12.67;3.83;;;17.60;99.90;;;;;;5037818;28;20623;-52
2021/07/16 09:00:26;;;;;;;24.00;5.47;;;17.60;99.90;;;;;;5030906;28;20809;-52
2021/07/16 09:02:57;;;;;;;26.67;5.97;;;17.60;99.90;;;;;;5029336;28;20311;-56
2021/07/16 09:05:31;;;;;;;12.90;3.73;;;17.60;99.90;;;;;;5034862;28;20216;-60
2021/07/16 09:07:59;;;;;;;8.63;3.50;;;17.60;99.90;;;;;;5029373;28;20248;-60
2021/07/16 09:10:27;;;;;;;19.43;5.00;;;17.50;99.90;;;;;;5035453;28;20297;-60
2021/07/16 09:13:00;;;;;;;14.23;3.97;;;17.70;99.90;;;;;;5033097;28;20324;-59
2021/07/16 09:15:28;;;;;;;12.80;3.70;;;17.70;99.90;;;;;;5029657;28;20233;-64
2021/07/16 09:18:23;;;;;;;14.37;3.93;;;17.60;99.90;;;;;;5022136;28;20300;-59
2021/07/16 09:21:03;;;;;;;9.33;3.83;;;17.70;99.90;;;;;;5021504;28;20366;-62
2021/07/16 09:23:48;;;;;;;12.23;4.13;;;17.60;99.90;;;;;;5022076;28;20759;-59
2021/07/16 09:26:26;;;;;;;16.40;3.57;;;17.70;99.90;;;;;;5022972;28;20611;-59
2021/07/16 09:28:56;;;;;;;13.43;3.20;;;17.80;99.90;;;;;;5021917;28;21690;-59
2021/07/16 09:31:25;;;;;;;12.33;3.37;;;17.80;99.90;;;;;;5042355;28;20465;-59
2021/07/16 09:34:00;;;;;;;9.67;3.40;;;17.90;99.90;;;;;;5030263;28;20641;-62
2021/07/16 09:36:38;;;;;;;16.87;4.43;;;17.80;99.90;;;;;;5025388;28;20202;-50
2021/07/16 09:39:09;;;;;;;13.17;4.03;;;17.70;99.90;;;;;;5029081;28;20205;-50
2021/07/16 09:41:57;;;;;;;8.30;3.17;;;17.80;99.90;;;;;;5025398;28;20234;-50
2021/07/16 09:44:35;;;;;;;10.90;3.43;;;18.00;99.90;;;;;;5025558;28;20283;-50
2021/07/16 09:47:16;;;;;;;15.20;3.60;;;18.20;99.90;;;;;;5023222;28;20305;-50
2021/07/16 09:49:47;;;;;;;9.30;4.40;;;18.30;99.90;;;;;;5031373;28;20288;-51
2021/07/16 09:52:20;;;;;;;11.40;3.33;;;18.30;99.90;;;;;;5028368;28;20215;-50
2021/07/16 09:55:18;;;;;;;14.17;3.60;;;18.20;99.90;;;;;;5029438;28;20321;-50
2021/07/16 09:57:47;;;;;;;10.10;3.17;;;18.10;99.90;;;;;;5024852;28;20664;-52
2021/07/16 10:00:15;;;;;;;14.10;3.30;;;18.10;99.90;;;;;;5037107;28;20242;-50
2021/07/16 10:03:02;;;;;;;14.17;3.77;;;18.20;99.90;;;;;;5034717;28;20207;-52
2021/07/16 10:05:30;;;;;;;11.10;3.53;;;18.00;99.90;;;;;;5031463;28;20287;-50
2021/07/16 10:07:58;;;;;;;12.33;4.07;;;18.00;99.90;;;;;;5037942;28;20196;-50
2021/07/16 10:10:25;;;;;;;16.10;4.03;;;18.10;99.90;;;;;;5027508;28;21477;-53
2021/07/16 10:12:51;;;;;;;11.60;3.70;;;18.00;99.90;;;;;;5030928;28;20222;-50
2021/07/16 10:15:20;;;;;;;10.93;4.50;;;17.90;99.90;;;;;;5034490;28;20262;-51
2021/07/16 10:17:49;;;;;;;11.37;4.10;;;17.90;99.90;;;;;;5032741;28;20196;-51
2021/07/16 10:20:18;;;;;;;11.60;4.00;;;18.00;99.90;;;;;;5028111;28;20204;-50
2021/07/16 10:22:47;;;;;;;12.20;4.07;;;18.10;99.90;;;;;;5033751;28;20210;-51
2021/07/16 10:25:19;;;;;;;12.37;3.73;;;18.10;99.90;;;;;;5032002;28;20239;-50
2021/07/16 10:27:46;;;;;;;13.57;4.00;;;18.20;99.90;;;;;;5022473;28;20339;-51
2021/07/16 10:30:16;;;;;;;10.37;3.60;;;18.20;99.90;;;;;;5030123;28;20612;-51
2021/07/16 10:32:44;;;;;;;12.33;3.90;;;18.50;99.90;;;;;;5031345;28;20281;-51
2021/07/16 10:35:26;;;;;;;15.53;3.73;;;18.50;99.90;;;;;;5032478;28;21948;-51
2021/07/16 10:37:58;;;;;;;13.97;3.90;;;18.40;99.90;;;;;;5033560;28;20539;-51
2021/07/16 10:40:41;;;;;;;11.00;3.30;;;18.30;99.90;;;;;;5036701;28;20306;-51
2021/07/16 10:43:28;;;;;;;11.30;3.77;;;18.30;99.90;;;;;;5033116;28;20284;-51
2021/07/16 10:46:01;;;;;;;14.90;4.07;;;18.40;99.90;;;;;;5029254;28;20579;-51
2021/07/16 10:48:37;;;;;;;12.43;4.03;;;18.40;99.90;;;;;;5035957;28;20202;-51
2021/07/16 10:51:07;;;;;;;7.20;3.27;;;18.40;99.90;;;;;;5035375;28;20641;-50
2021/07/16 10:53:33;;;;;;;11.17;3.83;;;18.40;99.90;;;;;;5033481;28;20723;-50
2021/07/16 10:56:11;;;;;;;10.47;3.70;;;18.50;99.90;;;;;;5032870;28;20227;-50
2021/07/16 10:58:39;;;;;;;10.40;4.07;;;18.50;99.90;;;;;;5034799;28;21205;-50
2021/07/16 11:01:10;;;;;;;11.33;4.20;;;18.50;99.90;;;;;;5039688;28;20652;-50
2021/07/16 11:03:51;;;;;;;9.87;3.40;;;18.50;99.90;;;;;;5038985;28;20202;-50
2021/07/16 11:06:20;;;;;;;14.03;4.10;;;18.60;99.90;;;;;;5037305;28;20200;-50
2021/07/16 11:08:52;;;;;;;8.77;3.23;;;18.70;99.90;;;;;;5034554;28;20249;-51
2021/07/16 11:11:22;;;;;;;9.40;3.10;;;18.70;99.90;;;;;;5035975;28;20715;-50
2021/07/16 11:13:53;;;;;;;11.20;3.67;;;18.60;99.90;;;;;;5034566;28;20267;-51
2021/07/16 11:16:27;;;;;;;10.47;3.70;;;18.60;99.90;;;;;;5034705;28;21246;-51
2021/07/16 11:19:09;;;;;;;12.10;4.20;;;18.60;99.90;;;;;;5031310;28;20210;-51
2021/07/16 11:21:41;;;;;;;11.90;4.43;;;18.60;99.90;;;;;;5037803;28;20258;-50
2021/07/16 11:24:31;;;;;;;8.27;4.07;;;18.80;99.90;;;;;;5035732;28;20609;-51
2021/07/16 11:27:17;;;;;;;10.60;3.37;;;18.80;99.90;;;;;;5034029;28;20274;-50
2021/07/16 11:29:49;;;;;;;9.87;3.80;;;18.80;99.90;;;;;;5036923;28;20573;-51
2021/07/16 11:32:24;;;;;;;10.87;4.07;;;18.70;99.90;;;;;;5034230;28;20267;-50
2021/07/16 11:35:05;;;;;;;19.50;4.57;;;18.80;99.90;;;;;;5033369;28;20334;-51
2021/07/16 11:37:36;;;;;;;10.87;3.73;;;18.80;99.90;;;;;;5037879;28;20213;-51
2021/07/16 11:40:07;;;;;;;11.80;3.83;;;18.80;99.90;;;;;;5032524;28;20250;-51
2021/07/16 11:42:39;;;;;;;13.43;3.80;;;18.80;99.90;;;;;;5035994;28;20237;-51
2021/07/16 11:45:11;;;;;;;12.20;3.70;;;18.80;99.90;;;;;;5032982;28;20293;-50
2021/07/16 11:47:38;;;;;;;10.43;3.77;;;18.80;99.90;;;;;;5026443;28;20389;-51
2021/07/16 11:50:10;;;;;;;10.67;3.50;;;18.90;99.90;;;;;;5026488;28;20312;-51
2021/07/16 11:52:40;;;;;;;11.60;3.73;;;18.90;99.90;;;;;;5024589;28;20292;-51
2021/07/16 11:55:13;;;;;;;11.70;3.70;;;18.90;99.90;;;;;;5022103;28;20333;-50
2021/07/16 11:58:05;;;;;;;14.00;3.63;;;19.10;99.90;;;;;;5020514;28;20510;-51
2021/07/16 12:00:41;;;;;;;12.03;4.70;;;19.00;99.90;;;;;;5019865;28;20206;-51
2021/07/16 12:03:12;;;;;;;11.23;3.90;;;19.10;99.90;;;;;;5019261;28;20849;-51
2021/07/16 12:05:50;;;;;;;7.20;3.37;;;19.20;99.90;;;;;;5021556;28;20274;-51
2021/07/16 12:08:21;;;;;;;11.93;3.97;;;19.20;99.90;;;;;;5026229;28;20275;-51
2021/07/16 12:10:50;;;;;;;12.60;3.80;;;19.20;99.90;;;;;;5027312;28;20307;-51
2021/07/16 12:13:18;;;;;;;6.43;2.90;;;19.40;99.90;;;;;;5024785;28;20667;-51
2021/07/16 12:15:57;;;;;;;7.97;3.17;;;19.40;99.90;;;;;;5023284;28;20894;-51
2021/07/16 12:18:24;;;;;;;8.23;3.23;;;19.40;99.90;;;;;;5026054;28;20328;-51
2021/07/16 12:20:54;;;;;;;7.70;3.30;;;19.40;99.90;;;;;;5029004;28;20265;-50
2021/07/16 12:23:21;;;;;;;12.10;3.63;;;19.60;99.90;;;;;;5028665;28;20231;-51
2021/07/16 12:26:08;;;;;;;13.03;4.40;;;19.60;99.90;;;;;;5028258;28;20434;-50
2021/07/16 12:28:35;;;;;;;12.33;3.73;;;19.60;99.90;;;;;;5024630;28;20203;-51
2021/07/16 12:31:02;;;;;;;9.70;3.83;;;19.70;99.90;;;;;;5030229;28;20306;-50
2021/07/16 12:33:33;;;;;;;16.30;3.97;;;19.60;99.90;;;;;;5029449;28;20195;-51
2021/07/16 12:36:00;;;;;;;10.93;3.33;;;19.60;99.90;;;;;;5032453;28;20294;-51
2021/07/16 12:38:36;;;;;;;9.43;4.00;;;19.70;99.90;;;;;;5031979;28;20298;-51
2021/07/16 12:41:09;;;;;;;9.97;3.67;;;19.80;99.90;;;;;;5027624;28;20260;-51
2021/07/16 12:43:42;;;;;;;10.10;3.30;;;20.00;99.90;;;;;;5013427;28;20644;-51
2021/07/16 12:46:10;;;;;;;11.50;3.70;;;20.10;99.90;;;;;;5010286;28;20867;-51
2021/07/16 12:48:38;;;;;;;12.47;3.80;;;20.00;99.90;;;;;;5013422;28;20281;-51
2021/07/16 12:51:16;;;;;;;12.43;3.50;;;19.90;99.90;;;;;;5014490;28;20224;-51